sensor_id;sensor_type;location;lat;lon;timestamp;pressure;altitude;pressure_sealevel;temperature;humidity
70458;BME280;57919;56.194;95.716;2023-02-17T00:02:34;100330.22;;;-11.48;66.94
70458;BME280;57919;56.194;95.716;2023-02-17T00:12:36;100303.97;;;-11.57;66.93
70458;BME280;57919;56.194;95.716;2023-02-17T00:22:38;100317.28;;;-11.42;67.46
70458;BME280;57919;56.194;95.716;2023-02-17T00:32:40;100306.91;;;-11.37;67.17
70458;BME280;57919;56.194;95.716;2023-02-17T00:42:42;100312.28;;;-11.28;67.45
70458;BME280;57919;56.194;95.716;2023-02-17T00:52:44;100300.09;;;-11.29;67.66
70458;BME280;57919;56.194;95.716;2023-02-17T01:02:46;100288.09;;;-11.18;67.64
70458;BME280;57919;56.194;95.716;2023-02-17T01:12:48;100283.81;;;-11.13;68.32
70458;BME280;57919;56.194;95.716;2023-02-17T01:22:50;100277.16;;;-10.93;67.77
70458;BME280;57919;56.194;95.716;2023-02-17T01:32:52;100268.56;;;-10.84;67.62
70458;BME280;57919;56.194;95.716;2023-02-17T01:42:56;100246.09;;;-10.73;67.81
70458;BME280;57919;56.194;95.716;2023-02-17T01:53:00;100221.78;;;-10.66;67.74
70458;BME280;57919;56.194;95.716;2023-02-17T02:03:05;100229.91;;;-10.43;67.59
70458;BME280;57919;56.194;95.716;2023-02-17T02:13:09;100218.72;;;-10.31;66.82
70458;BME280;57919;56.194;95.716;2023-02-17T02:34:05;100180.72;;;-9.94;66.42
70458;BME280;57919;56.194;95.716;2023-02-17T02:44:13;100167.66;;;-9.91;66.92
70458;BME280;57919;56.194;95.716;2023-02-17T02:55:07;100155.56;;;-9.79;66.46
70458;BME280;57919;56.194;95.716;2023-02-17T03:15:12;100120.94;;;-9.39;65.92
70458;BME280;57919;56.194;95.716;2023-02-17T03:25:15;100113.19;;;-9.21;65.81
70458;BME280;57919;56.194;95.716;2023-02-17T03:35:18;100082.63;;;-9.19;65.43
70458;BME280;57919;56.194;95.716;2023-02-17T03:45:21;100074.88;;;-8.92;64.75
70458;BME280;57919;56.194;95.716;2023-02-17T03:55:23;100027.69;;;-8.95;65.51
70458;BME280;57919;56.194;95.716;2023-02-17T04:05:25;100033.91;;;-8.53;64.19
70458;BME280;57919;56.194;95.716;2023-02-17T04:15:28;99998.03;;;-8.62;64.63
70458;BME280;57919;56.194;95.716;2023-02-17T04:25:33;99986.69;;;-8.39;64.46
70458;BME280;57919;56.194;95.716;2023-02-17T04:35:35;99970.97;;;-8.36;64.88
70458;BME280;57919;56.194;95.716;2023-02-17T04:45:37;99969.16;;;-8.07;64.09
70458;BME280;57919;56.194;95.716;2023-02-17T04:55:40;99946.41;;;-8.03;64.48
70458;BME280;57919;56.194;95.716;2023-02-17T05:05:42;99929.75;;;-7.96;64.67
70458;BME280;57919;56.194;95.716;2023-02-17T05:15:45;99933.13;;;-7.59;64.24
70458;BME280;57919;56.194;95.716;2023-02-17T05:25:47;99916.44;;;-7.46;64.44
70458;BME280;57919;56.194;95.716;2023-02-17T05:35:49;99897.19;;;-7.50;64.08
70458;BME280;57919;56.194;95.716;2023-02-17T05:45:51;99862.16;;;-7.48;64.75
70458;BME280;57919;56.194;95.716;2023-02-17T05:55:53;99870.94;;;-7.51;65.40
70458;BME280;57919;56.194;95.716;2023-02-17T06:05:54;99866.44;;;-7.28;65.38
70458;BME280;57919;56.194;95.716;2023-02-17T06:15:58;99837.47;;;-7.20;65.61
70458;BME280;57919;56.194;95.716;2023-02-17T06:26:00;99830.41;;;-7.13;65.45
70458;BME280;57919;56.194;95.716;2023-02-17T06:36:02;99807.56;;;-7.04;65.55
70458;BME280;57919;56.194;95.716;2023-02-17T06:46:04;99796.16;;;-7.03;65.13
70458;BME280;57919;56.194;95.716;2023-02-17T06:56:06;99770.66;;;-6.95;64.71
70458;BME280;57919;56.194;95.716;2023-02-17T07:06:08;99768.03;;;-6.93;65.10
70458;BME280;57919;56.194;95.716;2023-02-17T07:16:11;99773.97;;;-6.74;66.32
70458;BME280;57919;56.194;95.716;2023-02-17T07:26:14;99793.31;;;-6.80;66.13
70458;BME280;57919;56.194;95.716;2023-02-17T07:36:16;99803.16;;;-7.00;68.17
70458;BME280;57919;56.194;95.716;2023-02-17T07:46:18;99803.97;;;-6.94;68.01
70458;BME280;57919;56.194;95.716;2023-02-17T07:56:21;99821.53;;;-6.99;68.80
70458;BME280;57919;56.194;95.716;2023-02-17T08:06:24;99813.66;;;-7.00;70.01
70458;BME280;57919;56.194;95.716;2023-02-17T08:16:27;99814.53;;;-7.00;70.72
70458;BME280;57919;56.194;95.716;2023-02-17T08:26:29;99833.00;;;-7.10;70.73
70458;BME280;57919;56.194;95.716;2023-02-17T08:36:31;99833.91;;;-7.13;71.94
70458;BME280;57919;56.194;95.716;2023-02-17T08:46:34;99833.84;;;-7.02;71.36
70458;BME280;57919;56.194;95.716;2023-02-17T08:56:38;99836.50;;;-7.07;71.93
70458;BME280;57919;56.194;95.716;2023-02-17T09:06:43;99832.91;;;-6.98;71.73
70458;BME280;57919;56.194;95.716;2023-02-17T09:16:46;99833.78;;;-6.98;71.46
70458;BME280;57919;56.194;95.716;2023-02-17T09:26:48;99837.41;;;-7.11;71.66
70458;BME280;57919;56.194;95.716;2023-02-17T09:36:50;99829.59;;;-7.22;71.56
70458;BME280;57919;56.194;95.716;2023-02-17T09:47:06;99833.16;;;-7.29;72.23
70458;BME280;57919;56.194;95.716;2023-02-17T09:57:13;99818.31;;;-7.37;72.32
70458;BME280;57919;56.194;95.716;2023-02-17T10:07:30;99832.25;;;-7.28;72.80
70458;BME280;57919;56.194;95.716;2023-02-17T10:28:09;99842.88;;;-7.44;73.09
70458;BME280;57919;56.194;95.716;2023-02-17T10:38:42;99833.13;;;-7.27;74.00
70458;BME280;57919;56.194;95.716;2023-02-17T10:48:50;99826.31;;;-7.56;73.12
70458;BME280;57919;56.194;95.716;2023-02-17T10:59:11;99847.34;;;-7.60;74.19
70458;BME280;57919;56.194;95.716;2023-02-17T11:09:26;99835.13;;;-7.66;74.44
70458;BME280;57919;56.194;95.716;2023-02-17T11:19:33;99846.53;;;-7.73;74.81
70458;BME280;57919;56.194;95.716;2023-02-17T11:29:36;99871.00;;;-7.62;75.19
70458;BME280;57919;56.194;95.716;2023-02-17T11:39:51;99875.34;;;-7.59;75.46
70458;BME280;57919;56.194;95.716;2023-02-17T11:50:16;99873.59;;;-7.59;75.66
70458;BME280;57919;56.194;95.716;2023-02-17T12:00:21;99883.22;;;-7.55;76.59
70458;BME280;57919;56.194;95.716;2023-02-17T12:12:05;99889.34;;;-7.56;76.61
70458;BME280;57919;56.194;95.716;2023-02-17T12:32:05;99885.03;;;-7.67;77.53
70458;BME280;57919;56.194;95.716;2023-02-17T12:42:18;99905.06;;;-7.45;78.22
70458;BME280;57919;56.194;95.716;2023-02-17T12:52:28;99905.91;;;-7.41;77.67
70458;BME280;57919;56.194;95.716;2023-02-17T13:02:31;99900.63;;;-7.32;78.00
70458;BME280;57919;56.194;95.716;2023-02-17T13:12:36;99882.28;;;-7.41;78.03
70458;BME280;57919;56.194;95.716;2023-02-17T13:22:42;99904.09;;;-7.27;78.48
70458;BME280;57919;56.194;95.716;2023-02-17T13:32:44;99906.72;;;-7.26;78.04
70458;BME280;57919;56.194;95.716;2023-02-17T13:52:48;99917.16;;;-7.15;77.92
70458;BME280;57919;56.194;95.716;2023-02-17T14:13:18;99906.44;;;-6.85;77.43
70458;BME280;57919;56.194;95.716;2023-02-17T14:23:21;99927.59;;;-7.01;77.61
70458;BME280;57919;56.194;95.716;2023-02-17T14:33:24;99908.25;;;-6.94;78.75
70458;BME280;57919;56.194;95.716;2023-02-17T14:43:26;99925.78;;;-6.92;77.46
70458;BME280;57919;56.194;95.716;2023-02-17T14:53:31;99915.31;;;-6.99;77.67
70458;BME280;57919;56.194;95.716;2023-02-17T15:03:34;99920.06;;;-6.32;77.67
70458;BME280;57919;56.194;95.716;2023-02-17T15:13:36;99929.94;;;-6.62;75.92
70458;BME280;57919;56.194;95.716;2023-02-17T15:23:38;99932.59;;;-6.65;76.33
70458;BME280;57919;56.194;95.716;2023-02-17T15:33:42;99928.28;;;-6.72;76.88
70458;BME280;57919;56.194;95.716;2023-02-17T15:43:45;99938.75;;;-6.66;77.34
70458;BME280;57919;56.194;95.716;2023-02-17T15:53:48;99937.06;;;-6.76;77.90
70458;BME280;57919;56.194;95.716;2023-02-17T16:03:50;99937.97;;;-6.81;77.72
70458;BME280;57919;56.194;95.716;2023-02-17T16:13:53;99930.13;;;-6.85;78.36
70458;BME280;57919;56.194;95.716;2023-02-17T16:23:55;99950.28;;;-6.85;78.75
70458;BME280;57919;56.194;95.716;2023-02-17T16:34:00;99953.72;;;-6.77;78.59
70458;BME280;57919;56.194;95.716;2023-02-17T16:44:01;99966.03;;;-6.80;79.59
70458;BME280;57919;56.194;95.716;2023-02-17T16:54:04;99944.19;;;-6.93;79.95
70458;BME280;57919;56.194;95.716;2023-02-17T17:04:05;99967.81;;;-6.84;79.55
70458;BME280;57919;56.194;95.716;2023-02-17T17:14:09;99962.56;;;-6.89;79.35
70458;BME280;57919;56.194;95.716;2023-02-17T17:24:11;99979.19;;;-6.80;79.19
70458;BME280;57919;56.194;95.716;2023-02-17T17:34:13;100003.72;;;-6.80;79.08
70458;BME280;57919;56.194;95.716;2023-02-17T17:44:15;99989.72;;;-6.82;78.01
70458;BME280;57919;56.194;95.716;2023-02-17T17:54:17;100017.75;;;-6.78;77.78
70458;BME280;57919;56.194;95.716;2023-02-17T18:04:19;100022.97;;;-6.70;77.54
70458;BME280;57919;56.194;95.716;2023-02-17T18:14:21;100026.44;;;-6.68;76.96
70458;BME280;57919;56.194;95.716;2023-02-17T18:24:23;100026.47;;;-6.74;76.21
70458;BME280;57919;56.194;95.716;2023-02-17T18:34:25;100014.22;;;-6.75;74.83
70458;BME280;57919;56.194;95.716;2023-02-17T18:44:27;100036.09;;;-6.70;74.83
70458;BME280;57919;56.194;95.716;2023-02-17T18:54:29;100055.41;;;-6.71;74.93
70458;BME280;57919;56.194;95.716;2023-02-17T19:04:31;100031.81;;;-6.85;74.97
70458;BME280;57919;56.194;95.716;2023-02-17T19:14:33;100047.50;;;-6.71;73.88
70458;BME280;57919;56.194;95.716;2023-02-17T19:24:36;100054.53;;;-6.73;74.31
70458;BME280;57919;56.194;95.716;2023-02-17T19:34:38;100057.22;;;-6.84;73.73
70458;BME280;57919;56.194;95.716;2023-02-17T19:44:40;100059.00;;;-6.92;73.35
70458;BME280;57919;56.194;95.716;2023-02-17T19:54:42;100072.09;;;-6.80;72.70
70458;BME280;57919;56.194;95.716;2023-02-17T20:04:43;100075.66;;;-6.90;73.17
70458;BME280;57919;56.194;95.716;2023-02-17T20:14:45;100092.31;;;-6.94;73.05
70458;BME280;57919;56.194;95.716;2023-02-17T20:24:47;100105.47;;;-6.90;73.69
70458;BME280;57919;56.194;95.716;2023-02-17T20:34:49;100110.75;;;-7.02;73.53
70458;BME280;57919;56.194;95.716;2023-02-17T20:44:51;100120.38;;;-6.99;73.33
70458;BME280;57919;56.194;95.716;2023-02-17T20:54:55;100131.81;;;-7.03;73.41
70458;BME280;57919;56.194;95.716;2023-02-17T21:04:57;100134.41;;;-7.02;73.92
70458;BME280;57919;56.194;95.716;2023-02-17T21:14:59;100147.56;;;-7.00;73.24
70458;BME280;57919;56.194;95.716;2023-02-17T21:25:02;100134.44;;;-7.08;73.25
70458;BME280;57919;56.194;95.716;2023-02-17T21:35:05;100154.59;;;-7.11;74.05
70458;BME280;57919;56.194;95.716;2023-02-17T21:45:08;100158.13;;;-7.14;74.68
70458;BME280;57919;56.194;95.716;2023-02-17T21:55:10;100155.50;;;-7.23;74.40
70458;BME280;57919;56.194;95.716;2023-02-17T22:05:12;100175.63;;;-7.13;74.00
70458;BME280;57919;56.194;95.716;2023-02-17T22:15:14;100169.50;;;-7.20;74.01
70458;BME280;57919;56.194;95.716;2023-02-17T22:25:16;100187.91;;;-7.20;73.82
70458;BME280;57919;56.194;95.716;2023-02-17T22:35:18;100198.44;;;-7.23;73.34
70458;BME280;57919;56.194;95.716;2023-02-17T22:45:21;100200.19;;;-7.29;72.36
70458;BME280;57919;56.194;95.716;2023-02-17T22:55:23;100217.72;;;-7.27;72.09
70458;BME280;57919;56.194;95.716;2023-02-17T23:05:25;100226.47;;;-7.32;71.77
70458;BME280;57919;56.194;95.716;2023-02-17T23:15:26;100236.97;;;-7.37;71.79
70458;BME280;57919;56.194;95.716;2023-02-17T23:25:51;100244.00;;;-7.33;71.61
70458;BME280;57919;56.194;95.716;2023-02-17T23:35:54;100258.00;;;-7.34;72.13
70458;BME280;57919;56.194;95.716;2023-02-17T23:45:56;100256.25;;;-7.39;71.18
70458;BME280;57919;56.194;95.716;2023-02-17T23:56:07;100286.91;;;-7.25;71.34
